Time;durP1;ratioP1;P1;durP2;ratioP2;P2;SDS_P1;SDS_P2;PMS_P1;PMS_P2;Temp;Humidity;BMP_temperature;BMP_pressure;BME280_temperature;BME280_humidity;BME280_pressure;Samples;Min_cycle;Max_cycle;Signal;HPM_P1;HPM_P2
2022/05/23 00:00:09;;;;;;;4.78;1.55;;;20.70;99.90;;;;;;5057673;28;20200;-74
2022/05/23 00:02:37;;;;;;;2.20;1.48;;;20.60;99.90;;;;;;5053650;28;20228;-75
2022/05/23 00:05:03;;;;;;;1.98;1.30;;;20.50;99.90;;;;;;5031575;28;20193;-74
2022/05/23 00:07:32;;;;;;;1.63;1.08;;;20.40;99.90;;;;;;5065030;28;20197;-74
2022/05/23 00:09:59;;;;;;;1.63;1.23;;;20.40;99.90;;;;;;5065363;28;20273;-75
2022/05/23 00:12:26;;;;;;;2.03;1.17;;;20.30;99.90;;;;;;5018561;28;20196;-74
2022/05/23 00:14:52;;;;;;;1.55;1.20;;;20.20;99.90;;;;;;5026119;28;20178;-74
2022/05/23 00:17:19;;;;;;;2.08;1.17;;;20.20;99.90;;;;;;5034513;28;20191;-75
2022/05/23 00:19:46;;;;;;;2.78;1.50;;;20.10;99.90;;;;;;5056695;28;20183;-75
2022/05/23 00:22:16;;;;;;;2.10;1.20;;;20.00;99.90;;;;;;5032244;28;20206;-75
2022/05/23 00:24:46;;;;;;;2.33;1.20;;;20.00;99.90;;;;;;5049545;28;20219;-75
2022/05/23 00:27:16;;;;;;;2.03;1.45;;;19.90;99.90;;;;;;5055606;28;20244;-75
2022/05/23 00:29:42;;;;;;;4.22;1.50;;;19.80;99.90;;;;;;5062597;28;20198;-73
2022/05/23 00:37:36;;;;;;;1.98;1.40;;;19.70;99.90;;;;;;5026598;28;20273;-74
2022/05/23 00:40:05;;;;;;;2.72;1.60;;;19.70;99.90;;;;;;5056570;28;20209;-73
2022/05/23 00:45:20;;;;;;;2.50;1.30;;;19.50;99.90;;;;;;5030768;28;20239;-75
2022/05/23 00:47:49;;;;;;;2.25;1.48;;;19.50;99.90;;;;;;5067931;28;20198;-75
2022/05/23 00:50:17;;;;;;;2.80;1.35;;;19.50;99.90;;;;;;5056023;28;20209;-75
2022/05/23 00:52:51;;;;;;;2.75;1.40;;;19.50;99.90;;;;;;5057562;28;20216;-75
2022/05/23 00:55:35;;;;;;;1.70;1.30;;;19.40;99.90;;;;;;5033940;28;20295;-72
2022/05/23 00:58:13;;;;;;;1.67;1.23;;;19.40;99.90;;;;;;5062826;28;20193;-75
2022/05/23 01:00:39;;;;;;;2.63;1.60;;;19.40;99.90;;;;;;5058636;28;20170;-75
2022/05/23 01:03:10;;;;;;;2.70;1.50;;;19.40;99.90;;;;;;5053047;28;20305;-75
2022/05/23 01:05:39;;;;;;;1.88;1.30;;;19.40;99.90;;;;;;5062231;28;20337;-74
2022/05/23 01:08:13;;;;;;;1.35;1.17;;;19.40;99.90;;;;;;5051405;28;20185;-75
2022/05/23 01:10:40;;;;;;;1.75;1.42;;;19.30;99.90;;;;;;5063761;28;20180;-75
2022/05/23 01:13:05;;;;;;;2.65;1.40;;;19.40;99.90;;;;;;5052343;28;20186;-75
2022/05/23 01:15:34;;;;;;;1.95;1.40;;;19.30;99.90;;;;;;5033620;28;20190;-75
2022/05/23 01:18:03;;;;;;;2.95;1.40;;;19.40;99.90;;;;;;5066234;28;20185;-75
2022/05/23 01:20:29;;;;;;;1.80;1.40;;;19.30;99.90;;;;;;5034753;28;20178;-75
2022/05/23 01:23:06;;;;;;;2.03;1.30;;;19.40;99.90;;;;;;5034011;28;20202;-75
2022/05/23 01:25:39;;;;;;;2.47;1.60;;;19.40;99.90;;;;;;5070842;28;20178;-74
2022/05/23 01:28:07;;;;;;;2.95;1.33;;;19.40;99.90;;;;;;5069576;28;20198;-75
2022/05/23 01:30:36;;;;;;;2.17;1.48;;;19.40;99.90;;;;;;5071612;28;20181;-75
2022/05/23 01:33:07;;;;;;;2.78;1.48;;;19.40;99.90;;;;;;5024400;28;20175;-75
2022/05/23 01:35:33;;;;;;;2.17;1.30;;;19.40;99.90;;;;;;5029249;28;20194;-75
2022/05/23 01:37:59;;;;;;;2.05;1.40;;;19.30;99.90;;;;;;5055800;28;20177;-75
2022/05/23 01:40:32;;;;;;;2.70;1.40;;;19.30;99.90;;;;;;5029550;28;20178;-76
2022/05/23 01:42:58;;;;;;;2.33;1.27;;;19.40;99.90;;;;;;5064440;28;20208;-75
2022/05/23 01:45:29;;;;;;;2.70;1.42;;;19.40;99.90;;;;;;5031547;28;20170;-76
2022/05/23 01:47:56;;;;;;;2.03;1.42;;;19.40;99.90;;;;;;5032812;28;20233;-75
2022/05/23 01:50:25;;;;;;;2.17;1.30;;;19.40;99.90;;;;;;5056857;28;20197;-76
2022/05/23 01:52:52;;;;;;;2.42;1.40;;;19.30;99.90;;;;;;5052762;28;20202;-76
2022/05/23 01:55:21;;;;;;;2.20;1.40;;;19.30;99.90;;;;;;5032622;28;20206;-75
2022/05/23 01:57:47;;;;;;;2.42;1.52;;;19.30;99.90;;;;;;5054177;28;20259;-75
2022/05/23 02:02:57;;;;;;;2.03;1.25;;;19.40;99.90;;;;;;5024030;28;20216;-73
2022/05/23 02:05:25;;;;;;;2.50;1.50;;;19.40;99.90;;;;;;5053373;28;20183;-76
2022/05/23 02:07:54;;;;;;;1.67;1.42;;;19.30;99.90;;;;;;5037059;28;20205;-75
2022/05/23 02:10:20;;;;;;;2.50;1.55;;;19.30;99.90;;;;;;5069746;28;20178;-75
2022/05/23 02:12:47;;;;;;;2.00;1.30;;;19.30;99.90;;;;;;5051667;28;20182;-75
2022/05/23 02:15:18;;;;;;;2.25;1.42;;;19.30;99.90;;;;;;5032788;28;20232;-75
2022/05/23 02:17:46;;;;;;;1.77;1.33;;;19.30;99.90;;;;;;5030489;28;20171;-73
2022/05/23 02:20:17;;;;;;;2.15;1.40;;;19.30;99.90;;;;;;5053150;28;20175;-75
2022/05/23 02:22:45;;;;;;;1.65;1.30;;;19.30;99.90;;;;;;5063152;28;20202;-75
2022/05/23 02:25:12;;;;;;;1.60;1.48;;;19.30;99.90;;;;;;5021688;28;20194;-75
2022/05/23 02:27:40;;;;;;;2.33;1.40;;;19.30;99.90;;;;;;5064355;28;20202;-75
2022/05/23 02:30:07;;;;;;;3.28;1.50;;;19.30;99.90;;;;;;5067922;28;20259;-76
2022/05/23 02:32:36;;;;;;;1.90;1.50;;;19.30;99.90;;;;;;5065639;28;20178;-74
2022/05/23 02:35:04;;;;;;;2.35;1.33;;;19.30;99.90;;;;;;5066248;28;20178;-74
2022/05/23 02:37:30;;;;;;;2.20;1.50;;;19.30;99.90;;;;;;5066092;28;20192;-75
2022/05/23 02:39:55;;;;;;;3.13;1.50;;;19.30;99.90;;;;;;5065366;28;20272;-74
2022/05/23 02:42:21;;;;;;;2.03;1.45;;;19.30;99.90;;;;;;5031814;28;20233;-75
2022/05/23 02:44:46;;;;;;;2.35;1.50;;;19.30;99.90;;;;;;5069367;28;20189;-73
2022/05/23 02:47:12;;;;;;;1.77;1.30;;;19.30;99.90;;;;;;5064424;28;20206;-75
2022/05/23 02:49:38;;;;;;;4.18;1.60;;;19.30;99.90;;;;;;5057624;28;20209;-75
2022/05/23 02:52:04;;;;;;;2.40;1.50;;;19.20;99.90;;;;;;5066311;28;20214;-74
2022/05/23 02:54:30;;;;;;;1.73;1.40;;;19.20;99.90;;;;;;5033633;28;20197;-72
2022/05/23 02:56:57;;;;;;;2.47;1.60;;;19.20;99.90;;;;;;5035159;28;20202;-75
2022/05/23 02:59:25;;;;;;;2.60;1.55;;;19.20;99.90;;;;;;5025443;28;20233;-75
2022/05/23 03:04:38;;;;;;;2.55;1.33;;;19.20;99.90;;;;;;5020849;28;20225;-75
2022/05/23 03:07:04;;;;;;;1.88;1.42;;;19.20;99.90;;;;;;5023459;28;20198;-74
2022/05/23 03:09:32;;;;;;;2.95;1.48;;;19.20;99.90;;;;;;5064651;28;20178;-76
2022/05/23 03:12:00;;;;;;;1.73;1.38;;;19.10;99.90;;;;;;5055498;28;20183;-72
2022/05/23 03:14:29;;;;;;;2.42;1.40;;;19.20;99.90;;;;;;5067355;28;20181;-74
2022/05/23 03:17:00;;;;;;;1.73;1.30;;;19.10;99.90;;;;;;5034132;28;20196;-73
2022/05/23 03:19:28;;;;;;;2.10;1.40;;;19.10;99.90;;;;;;5054870;28;20174;-74
2022/05/23 03:27:24;;;;;;;1.48;1.30;;;19.20;99.90;;;;;;5032921;28;20224;-74
2022/05/23 03:29:51;;;;;;;3.35;2.17;;;19.20;99.90;;;;;;5058121;28;20193;-74
2022/05/23 03:32:17;;;;;;;2.50;1.65;;;19.20;99.90;;;;;;5055053;28;20217;-72
2022/05/23 03:34:43;;;;;;;2.10;1.60;;;19.20;99.90;;;;;;5062691;28;20174;-76
2022/05/23 03:37:11;;;;;;;2.30;1.38;;;19.20;99.90;;;;;;5058866;28;20183;-75
2022/05/23 03:39:39;;;;;;;3.10;1.70;;;19.20;99.90;;;;;;5058591;28;20267;-74
2022/05/23 03:42:05;;;;;;;2.72;1.42;;;19.20;99.90;;;;;;5061810;28;20235;-74
2022/05/23 03:44:31;;;;;;;2.08;1.60;;;19.20;99.90;;;;;;5041444;28;20266;-76
2022/05/23 03:46:57;;;;;;;2.15;1.40;;;19.20;99.90;;;;;;5062232;28;20210;-74
2022/05/23 03:49:25;;;;;;;2.63;1.80;;;19.20;99.90;;;;;;5020166;28;20178;-75
2022/05/23 03:51:50;;;;;;;2.50;1.88;;;19.20;99.90;;;;;;5056324;28;20320;-76
2022/05/23 03:54:18;;;;;;;2.20;1.75;;;19.20;99.90;;;;;;5057107;28;20263;-75
2022/05/23 03:56:47;;;;;;;2.17;1.45;;;19.20;99.90;;;;;;5035305;28;20231;-75
2022/05/23 03:59:17;;;;;;;2.05;1.48;;;19.20;99.90;;;;;;5031475;28;20170;-75
2022/05/23 04:01:42;;;;;;;2.15;1.52;;;19.30;99.90;;;;;;5056295;28;20264;-75
2022/05/23 04:04:08;;;;;;;2.35;1.85;;;19.20;99.90;;;;;;5057295;28;20182;-75
2022/05/23 04:06:38;;;;;;;2.97;1.90;;;19.20;99.90;;;;;;5029150;28;20407;-75
2022/05/23 04:09:06;;;;;;;3.03;1.50;;;19.30;99.90;;;;;;5053960;28;20180;-75
2022/05/23 04:11:32;;;;;;;1.73;1.50;;;19.30;99.90;;;;;;5067468;28;20170;-77
2022/05/23 04:14:00;;;;;;;2.20;1.70;;;19.30;99.90;;;;;;5055403;28;20198;-76
2022/05/23 04:16:28;;;;;;;3.10;1.90;;;19.30;99.90;;;;;;5049231;28;20194;-76
2022/05/23 04:18:54;;;;;;;3.40;1.60;;;19.30;99.90;;;;;;5023214;28;20174;-76
2022/05/23 04:21:19;;;;;;;3.28;1.50;;;19.30;99.90;;;;;;5067935;28;20237;-77
2022/05/23 04:23:52;;;;;;;2.90;1.60;;;19.30;99.90;;;;;;5035075;28;20201;-74
2022/05/23 04:26:18;;;;;;;1.90;1.40;;;19.30;99.90;;;;;;5025836;28;20241;-74
2022/05/23 04:28:43;;;;;;;2.08;1.50;;;19.30;99.90;;;;;;5064562;28;20199;-74
2022/05/23 04:31:15;;;;;;;2.47;1.63;;;19.30;99.90;;;;;;5048227;28;20175;-75
2022/05/23 04:36:27;;;;;;;3.70;1.70;;;19.40;99.90;;;;;;5017020;28;20277;-75
2022/05/23 04:38:52;;;;;;;3.55;1.48;;;19.40;99.90;;;;;;5062642;28;20208;-75
2022/05/23 04:41:20;;;;;;;2.97;1.60;;;19.40;99.90;;;;;;5028426;28;20197;-75
2022/05/23 04:43:48;;;;;;;1.73;1.40;;;19.40;99.90;;;;;;5067513;28;20166;-76
2022/05/23 04:46:13;;;;;;;3.20;1.70;;;19.40;99.90;;;;;;5063807;28;20289;-76
2022/05/23 04:51:23;;;;;;;4.50;3.05;;;19.40;99.90;;;;;;5022163;28;20237;-75
2022/05/23 04:53:53;;;;;;;3.90;2.45;;;19.50;99.90;;;;;;5055846;28;20265;-76
2022/05/23 04:56:21;;;;;;;3.28;2.17;;;19.50;99.90;;;;;;5025888;28;20167;-75
2022/05/23 04:58:51;;;;;;;2.67;1.63;;;19.50;99.90;;;;;;5053740;28;20181;-75
2022/05/23 05:01:18;;;;;;;3.05;1.80;;;19.40;99.90;;;;;;5035544;28;20217;-76
2022/05/23 05:03:43;;;;;;;2.08;1.63;;;19.50;99.90;;;;;;5053699;28;20250;-76
2022/05/23 05:06:09;;;;;;;2.47;1.55;;;19.50;99.90;;;;;;5054579;28;20293;-76
2022/05/23 05:08:37;;;;;;;2.00;1.60;;;19.50;99.90;;;;;;5049684;28;20194;-76
2022/05/23 05:11:07;;;;;;;2.13;1.50;;;19.50;99.90;;;;;;5053693;28;20182;-75
2022/05/23 05:13:35;;;;;;;5.57;1.70;;;19.50;99.90;;;;;;5055258;28;20171;-74
2022/05/23 05:16:02;;;;;;;2.15;1.50;;;19.50;99.90;;;;;;5052005;28;20193;-76
2022/05/23 05:18:29;;;;;;;2.30;1.60;;;19.50;99.90;;;;;;5053589;28;20171;-72
2022/05/23 05:20:54;;;;;;;2.78;1.75;;;19.50;99.90;;;;;;5061586;28;20264;-76
2022/05/23 05:23:24;;;;;;;2.08;1.63;;;19.50;99.90;;;;;;5051022;28;20226;-74
2022/05/23 05:25:54;;;;;;;1.90;1.70;;;19.50;99.90;;;;;;5064207;28;20257;-76
2022/05/23 05:28:20;;;;;;;2.67;1.75;;;19.50;99.90;;;;;;5060506;28;20174;-75
2022/05/23 05:30:54;;;;;;;3.17;1.52;;;19.50;99.90;;;;;;5053375;28;20345;-76
2022/05/23 05:33:26;;;;;;;4.20;1.50;;;19.50;99.90;;;;;;5047497;28;20174;-77
2022/05/23 05:36:04;;;;;;;2.35;1.88;;;19.50;99.90;;;;;;5050417;28;20202;-75
2022/05/23 05:38:51;;;;;;;2.20;1.75;;;19.60;99.90;;;;;;5023251;28;20185;-73
2022/05/23 05:41:28;;;;;;;1.75;1.35;;;19.60;99.90;;;;;;5062569;28;20210;-74
2022/05/23 05:44:04;;;;;;;2.30;1.50;;;19.60;99.90;;;;;;5025086;28;20198;-75
2022/05/23 05:46:34;;;;;;;2.05;1.50;;;19.70;99.90;;;;;;5058774;28;20198;-76
2022/05/23 05:49:04;;;;;;;3.15;1.60;;;19.70;99.90;;;;;;5056087;28;20195;-74
2022/05/23 05:51:35;;;;;;;2.25;1.42;;;19.70;99.90;;;;;;5033496;28;20182;-72
2022/05/23 05:54:01;;;;;;;3.35;1.65;;;19.70;99.90;;;;;;5058267;28;20193;-73
2022/05/23 05:56:27;;;;;;;1.98;1.50;;;19.80;99.90;;;;;;5027523;28;20202;-73
2022/05/23 05:58:55;;;;;;;2.75;1.48;;;19.80;99.90;;;;;;5048229;28;20178;-74
2022/05/23 06:01:28;;;;;;;3.53;1.80;;;19.80;99.90;;;;;;5034549;28;20174;-73
2022/05/23 06:03:53;;;;;;;2.85;1.77;;;19.80;99.90;;;;;;5063700;28;20265;-73
2022/05/23 06:11:49;;;;;;;1.85;1.60;;;20.00;99.90;;;;;;5018396;28;20213;-73
2022/05/23 06:14:15;;;;;;;1.90;1.45;;;20.00;99.90;;;;;;5052985;28;20187;-72
2022/05/23 06:16:41;;;;;;;2.42;1.38;;;20.10;99.90;;;;;;5070257;28;20277;-72
2022/05/23 06:19:09;;;;;;;2.22;1.60;;;20.10;99.90;;;;;;5070381;28;20277;-73
2022/05/23 06:21:37;;;;;;;5.00;1.60;;;20.10;99.90;;;;;;5070234;28;20201;-73
2022/05/23 06:24:02;;;;;;;2.97;1.63;;;20.10;99.90;;;;;;5037014;28;20189;-73
2022/05/23 06:26:28;;;;;;;2.40;1.50;;;20.20;99.90;;;;;;5070290;28;20194;-71
2022/05/23 06:28:56;;;;;;;2.65;1.33;;;20.30;99.90;;;;;;5070176;28;20198;-72
2022/05/23 06:31:22;;;;;;;1.80;1.35;;;20.20;99.90;;;;;;5065475;28;20174;-73
2022/05/23 06:33:49;;;;;;;2.45;1.38;;;20.30;99.90;;;;;;5052286;28;20185;-72
2022/05/23 06:36:16;;;;;;;1.88;1.50;;;20.30;99.90;;;;;;5059634;28;20178;-72
2022/05/23 06:38:42;;;;;;;3.13;1.42;;;20.40;99.90;;;;;;5033314;28;20174;-70
2022/05/23 06:41:09;;;;;;;2.88;1.50;;;20.40;99.90;;;;;;5036673;28;20181;-73
2022/05/23 06:43:36;;;;;;;2.85;1.70;;;20.50;99.90;;;;;;5069989;28;20209;-72
2022/05/23 06:46:05;;;;;;;3.70;1.80;;;20.50;99.90;;;;;;5036845;28;20209;-73
2022/05/23 06:48:31;;;;;;;1.88;1.20;;;20.50;99.90;;;;;;5036657;28;20236;-73
2022/05/23 06:50:57;;;;;;;2.35;1.10;;;20.50;99.90;;;;;;5069986;28;20228;-74
2022/05/23 06:53:27;;;;;;;5.63;1.98;;;20.60;99.90;;;;;;5069878;28;20174;-71
2022/05/23 06:55:54;;;;;;;2.50;1.50;;;20.60;99.90;;;;;;5069835;28;20217;-73
2022/05/23 06:58:21;;;;;;;2.53;1.45;;;20.60;99.90;;;;;;5069855;28;20174;-73
2022/05/23 07:00:48;;;;;;;2.60;1.58;;;20.70;99.90;;;;;;5069686;28;20170;-74
2022/05/23 07:03:16;;;;;;;2.72;1.67;;;20.70;99.90;;;;;;5027165;28;20175;-73
2022/05/23 07:14:02;;;;;;;2.15;1.40;;;20.70;99.90;;;;;;5024149;28;20185;-74
2022/05/23 07:16:31;;;;;;;2.22;1.67;;;20.70;99.90;;;;;;5052115;28;20182;-73
2022/05/23 07:18:56;;;;;;;1.70;1.40;;;20.70;99.90;;;;;;5060184;28;20187;-73
2022/05/23 07:21:24;;;;;;;2.38;1.20;;;20.70;99.90;;;;;;5061129;28;20228;-73
2022/05/23 07:23:50;;;;;;;3.63;1.70;;;20.70;99.90;;;;;;5060197;28;20265;-74
2022/05/23 07:26:16;;;;;;;2.20;1.52;;;20.70;99.90;;;;;;5062701;28;20282;-71
2022/05/23 07:28:43;;;;;;;3.17;1.52;;;20.80;99.90;;;;;;5063666;28;20198;-74
2022/05/23 07:31:10;;;;;;;3.13;1.63;;;20.80;99.90;;;;;;5052619;28;20320;-72
2022/05/23 07:33:39;;;;;;;2.50;1.60;;;20.90;99.90;;;;;;5057316;28;20254;-74
2022/05/23 07:36:11;;;;;;;3.03;1.50;;;20.90;99.90;;;;;;5068913;28;20198;-71
2022/05/23 07:38:37;;;;;;;1.80;1.48;;;20.90;99.90;;;;;;5049079;28;20512;-75
2022/05/23 07:41:04;;;;;;;2.45;1.75;;;20.90;99.90;;;;;;5049035;28;20265;-74
2022/05/23 07:43:36;;;;;;;3.22;1.58;;;21.00;99.90;;;;;;5032192;28;20163;-74
2022/05/23 07:46:14;;;;;;;2.08;1.60;;;21.00;99.90;;;;;;5035366;28;20174;-72
2022/05/23 07:48:48;;;;;;;4.55;2.03;;;21.10;99.90;;;;;;5068590;28;20204;-73
2022/05/23 07:51:16;;;;;;;2.63;1.90;;;21.10;99.90;;;;;;5068756;28;20170;-73
2022/05/23 08:01:58;;;;;;;2.95;1.80;;;21.30;99.90;;;;;;5035761;28;20227;-74
2022/05/23 08:04:24;;;;;;;3.53;1.98;;;21.30;99.90;;;;;;5068444;28;20205;-73
2022/05/23 08:06:50;;;;;;;2.47;1.75;;;21.30;99.90;;;;;;5059480;28;20244;-75
2022/05/23 08:09:17;;;;;;;3.13;1.63;;;21.30;99.90;;;;;;5035167;28;20190;-72
2022/05/23 08:11:48;;;;;;;3.30;1.88;;;21.30;99.90;;;;;;5068598;28;20177;-73
2022/05/23 08:14:16;;;;;;;2.58;1.60;;;21.30;99.90;;;;;;5055456;28;20225;-73
2022/05/23 08:16:42;;;;;;;1.42;1.33;;;21.30;99.90;;;;;;5034688;28;20178;-72
2022/05/23 08:19:10;;;;;;;2.63;1.77;;;21.40;99.90;;;;;;5067923;28;20174;-73
2022/05/23 08:21:42;;;;;;;2.13;1.58;;;21.40;99.90;;;;;;5034988;28;20263;-75
2022/05/23 08:24:08;;;;;;;2.38;1.60;;;21.50;99.90;;;;;;5066895;28;20181;-73
2022/05/23 08:26:36;;;;;;;2.00;1.45;;;21.60;99.90;;;;;;5059444;28;20191;-72
2022/05/23 08:29:02;;;;;;;3.38;1.67;;;21.60;99.90;;;;;;5050164;28;20190;-73
2022/05/23 08:31:28;;;;;;;2.83;1.90;;;21.70;99.90;;;;;;5020030;28;20170;-73
2022/05/23 08:33:53;;;;;;;3.38;2.00;;;21.70;99.90;;;;;;5054603;28;20174;-74
2022/05/23 08:36:21;;;;;;;2.38;1.65;;;21.80;99.90;;;;;;5067843;28;20190;-76
2022/05/23 08:38:47;;;;;;;3.28;1.85;;;21.80;99.90;;;;;;5067926;28;20261;-76
2022/05/23 08:41:15;;;;;;;3.40;1.60;;;21.80;99.90;;;;;;5055591;28;20182;-73
2022/05/23 08:44:10;;;;;;;3.55;1.73;;;21.90;99.90;;;;;;5032926;28;20186;-74
2022/05/23 08:47:05;;;;;;;2.90;1.73;;;21.90;99.90;;;;;;5050691;28;20202;-73
2022/05/23 08:49:45;;;;;;;3.22;1.70;;;21.90;99.90;;;;;;5032544;28;20182;-74
2022/05/23 08:52:14;;;;;;;2.58;1.60;;;21.90;99.90;;;;;;5031138;28;20184;-75
2022/05/23 08:54:56;;;;;;;2.92;1.60;;;21.90;99.90;;;;;;5048762;28;20297;-73
2022/05/23 08:57:43;;;;;;;2.05;1.73;;;21.90;99.90;;;;;;5067820;28;20181;-73
2022/05/23 09:00:18;;;;;;;3.15;1.75;;;22.00;99.90;;;;;;5030794;28;20186;-74
2022/05/23 09:02:52;;;;;;;1.58;1.30;;;22.10;99.90;;;;;;5034074;28;20201;-74
2022/05/23 09:05:23;;;;;;;2.90;1.60;;;22.20;99.90;;;;;;5067674;28;20259;-74
2022/05/23 09:08:01;;;;;;;4.10;2.03;;;22.40;99.90;;;;;;5052202;28;20202;-74
2022/05/23 09:10:55;;;;;;;2.50;1.90;;;22.50;99.90;;;;;;5034469;28;20193;-73
2022/05/23 09:13:27;;;;;;;2.97;1.77;;;22.60;99.90;;;;;;5067679;28;20177;-73
2022/05/23 09:15:59;;;;;;;2.80;1.77;;;22.60;99.90;;;;;;5058447;28;20359;-72
2022/05/23 09:18:30;;;;;;;2.92;1.73;;;22.70;99.90;;;;;;5067183;28;20185;-74
2022/05/23 09:21:01;;;;;;;3.00;1.70;;;22.80;99.90;;;;;;5067726;28;20236;-74
2022/05/23 09:23:39;;;;;;;3.25;1.55;;;22.80;99.90;;;;;;5066943;28;20196;-74
2022/05/23 09:26:14;;;;;;;4.10;1.50;;;22.90;99.90;;;;;;5066982;28;20204;-74
2022/05/23 09:28:43;;;;;;;3.53;1.77;;;23.00;99.90;;;;;;5066965;28;20202;-73
2022/05/23 09:31:40;;;;;;;2.80;1.73;;;23.00;99.90;;;;;;5067465;28;20174;-75
2022/05/23 09:34:25;;;;;;;2.17;1.50;;;23.10;99.90;;;;;;5012027;28;20265;-73
2022/05/23 09:36:51;;;;;;;2.70;1.52;;;23.10;99.90;;;;;;5047753;28;20178;-74
2022/05/23 09:39:26;;;;;;;4.13;1.65;;;23.10;99.90;;;;;;5060541;28;20189;-72
2022/05/23 09:47:46;;;;;;;2.72;1.65;;;23.40;99.90;;;;;;5038929;28;20200;-74
2022/05/23 09:50:30;;;;;;;2.53;1.90;;;23.50;99.90;;;;;;5071255;28;20178;-73
2022/05/23 09:52:59;;;;;;;3.10;1.45;;;23.60;99.90;;;;;;5037762;28;20173;-72
2022/05/23 09:55:35;;;;;;;2.33;1.33;;;23.60;99.90;;;;;;5071077;28;20220;-73
2022/05/23 09:58:07;;;;;;;1.92;1.45;;;23.70;99.90;;;;;;5051331;28;20205;-73
2022/05/23 10:00:36;;;;;;;1.73;1.60;;;23.70;99.90;;;;;;5037085;28;20188;-73
2022/05/23 10:03:23;;;;;;;3.30;1.55;;;23.70;99.90;;;;;;5070856;28;20339;-74
2022/05/23 10:06:06;;;;;;;1.77;1.30;;;23.80;99.90;;;;;;5070695;28;20238;-74
2022/05/23 10:08:35;;;;;;;2.88;1.83;;;23.90;99.90;;;;;;5032673;28;20209;-73
2022/05/23 10:11:07;;;;;;;2.00;1.60;;;23.90;99.90;;;;;;5070921;28;20181;-75
2022/05/23 10:13:44;;;;;;;3.67;1.75;;;24.00;99.90;;;;;;5070892;28;20231;-74
2022/05/23 10:16:15;;;;;;;2.60;1.73;;;24.10;99.90;;;;;;5037622;28;20154;-73
2022/05/23 10:19:03;;;;;;;2.03;1.75;;;24.10;99.90;;;;;;5033896;28;20167;-75
2022/05/23 10:21:37;;;;;;;4.13;2.03;;;24.20;99.90;;;;;;5033950;28;20191;-74
2022/05/23 10:24:24;;;;;;;5.53;1.70;;;24.30;99.90;;;;;;5033933;28;20253;-74
2022/05/23 10:26:57;;;;;;;2.78;1.70;;;24.40;99.90;;;;;;5035438;28;20198;-74
2022/05/23 10:29:41;;;;;;;4.45;1.80;;;24.60;99.90;;;;;;5050192;28;20199;-74
2022/05/23 10:32:10;;;;;;;2.45;1.88;;;24.80;99.90;;;;;;5033693;28;20178;-73
2022/05/23 10:34:39;;;;;;;5.55;1.90;;;24.90;99.90;;;;;;5058178;28;20194;-75
2022/05/23 10:37:12;;;;;;;2.88;1.92;;;25.10;99.90;;;;;;5053842;28;20185;-75
2022/05/23 10:42:36;;;;;;;4.30;2.00;;;25.30;99.90;;;;;;5037716;28;20225;-75
2022/05/23 10:45:46;;;;;;;2.50;1.83;;;25.60;99.90;;;;;;5044439;28;20193;-74
2022/05/23 10:48:28;;;;;;;3.08;1.60;;;25.80;99.90;;;;;;4999300;28;20213;-73
2022/05/23 10:51:21;;;;;;;3.97;2.42;;;26.00;99.90;;;;;;5016047;28;20182;-73
2022/05/23 10:54:08;;;;;;;3.63;2.10;;;26.30;99.90;;;;;;5032986;28;20166;-75
2022/05/23 10:56:55;;;;;;;2.30;1.80;;;26.50;99.90;;;;;;5049753;28;20265;-76
2022/05/23 11:00:16;;;;;;;1.95;1.60;;;26.80;99.90;;;;;;5033408;28;20186;-71
2022/05/23 11:03:15;;;;;;;2.85;1.73;;;27.10;99.90;;;;;;5008959;28;20230;-76
2022/05/23 11:05:52;;;;;;;4.15;1.90;;;27.30;99.90;;;;;;5050014;28;20183;-74
2022/05/23 11:08:23;;;;;;;2.28;1.75;;;27.40;99.90;;;;;;5033326;28;20248;-76
2022/05/23 11:10:57;;;;;;;3.33;1.80;;;27.50;99.90;;;;;;5053122;28;20188;-76
2022/05/23 11:13:55;;;;;;;1.52;1.38;;;27.70;99.90;;;;;;5052762;28;20170;-74
2022/05/23 11:16:35;;;;;;;1.65;1.40;;;27.80;99.90;;;;;;5046567;28;20180;-75
2022/05/23 11:19:38;;;;;;;2.75;1.60;;;27.90;99.90;;;;;;5069414;28;20256;-74
2022/05/23 11:22:20;;;;;;;2.88;1.80;;;27.90;99.90;;;;;;5052323;28;20261;-75
2022/05/23 11:25:03;;;;;;;4.05;1.70;;;27.90;99.90;;;;;;5069365;28;20196;-74
2022/05/23 11:36:04;;;;;;;1.98;1.58;;;27.40;99.90;;;;;;5036559;28;20196;-74
2022/05/23 11:38:30;;;;;;;2.58;1.67;;;27.20;99.90;;;;;;5067727;28;20311;-74
2022/05/23 11:41:01;;;;;;;3.80;1.90;;;27.00;99.90;;;;;;5051097;28;20189;-75
2022/05/23 11:43:30;;;;;;;3.10;1.63;;;26.90;99.90;;;;;;5035233;28;20281;-73
2022/05/23 11:46:04;;;;;;;3.60;1.55;;;26.70;99.90;;;;;;5035497;28;20181;-73
2022/05/23 11:48:39;;;;;;;1.50;1.30;;;26.60;99.90;;;;;;5035524;28;20223;-73
2022/05/23 11:51:41;;;;;;;2.67;1.42;;;26.50;99.90;;;;;;5035349;28;20166;-73
2022/05/23 11:54:34;;;;;;;2.17;1.65;;;26.40;99.90;;;;;;5048753;28;20209;-73
2022/05/23 11:57:03;;;;;;;3.00;1.60;;;26.30;99.90;;;;;;5061910;28;20445;-73
2022/05/23 11:59:28;;;;;;;2.13;1.30;;;26.30;99.90;;;;;;5052119;28;20174;-74
2022/05/23 12:02:12;;;;;;;3.78;1.73;;;26.20;99.90;;;;;;5036127;28;20202;-74
2022/05/23 12:04:55;;;;;;;3.72;2.00;;;26.20;99.90;;;;;;5033277;28;20193;-75
2022/05/23 12:07:43;;;;;;;3.90;1.80;;;26.10;99.90;;;;;;5048427;28;20198;-73
2022/05/23 12:10:21;;;;;;;2.03;1.40;;;26.00;99.90;;;;;;5055796;28;20174;-74
2022/05/23 12:12:49;;;;;;;1.70;1.40;;;26.00;99.90;;;;;;5051856;28;20201;-75
2022/05/23 12:15:42;;;;;;;2.67;1.50;;;26.00;99.90;;;;;;5052422;28;20201;-73
2022/05/23 12:18:23;;;;;;;2.47;1.80;;;26.00;99.90;;;;;;5047190;28;20268;-73
2022/05/23 12:20:55;;;;;;;3.85;1.83;;;26.10;99.90;;;;;;5046450;28;20190;-73
2022/05/23 12:23:42;;;;;;;2.75;1.67;;;26.10;99.90;;;;;;5035847;28;20154;-74
2022/05/23 12:26:11;;;;;;;2.38;1.65;;;26.20;99.90;;;;;;5049662;28;20178;-74
2022/05/23 12:28:43;;;;;;;2.60;1.58;;;26.30;99.90;;;;;;5051105;28;20208;-75
2022/05/23 12:31:14;;;;;;;2.78;1.45;;;26.40;99.90;;;;;;5051579;28;20170;-74
2022/05/23 12:33:49;;;;;;;3.03;1.50;;;26.50;99.90;;;;;;5035091;28;20174;-71
2022/05/23 12:36:22;;;;;;;2.53;2.03;;;26.60;99.90;;;;;;5034199;28;20171;-73
2022/05/23 12:39:20;;;;;;;4.28;1.70;;;26.70;99.90;;;;;;5060011;28;20174;-73
2022/05/23 12:41:53;;;;;;;3.63;1.60;;;26.80;99.90;;;;;;5018505;28;20190;-73
2022/05/23 12:44:47;;;;;;;1.80;1.40;;;26.90;99.90;;;;;;5039461;28;20174;-72
2022/05/23 12:47:34;;;;;;;3.03;1.63;;;26.90;99.90;;;;;;5038364;28;20209;-73
2022/05/23 12:50:02;;;;;;;3.15;1.70;;;26.80;99.90;;;;;;5032655;28;20277;-73
2022/05/23 12:53:12;;;;;;;4.78;1.90;;;26.80;99.90;;;;;;5034394;28;20280;-75
2022/05/23 12:55:51;;;;;;;3.33;1.65;;;26.70;99.90;;;;;;5050375;28;20256;-72
2022/05/23 12:58:28;;;;;;;3.58;1.70;;;26.60;99.90;;;;;;5060574;28;20268;-74
2022/05/23 13:01:02;;;;;;;2.30;1.58;;;26.50;99.90;;;;;;5067815;28;20161;-73
2022/05/23 13:03:46;;;;;;;2.85;1.60;;;26.40;99.90;;;;;;5067775;28;20264;-73
2022/05/23 13:06:26;;;;;;;3.90;1.70;;;26.20;99.90;;;;;;5050508;28;20177;-73
2022/05/23 13:09:02;;;;;;;2.28;1.85;;;26.10;99.90;;;;;;5030823;28;20204;-74
2022/05/23 13:11:43;;;;;;;2.88;1.80;;;25.90;99.90;;;;;;5065374;28;20181;-73
2022/05/23 13:14:11;;;;;;;2.28;1.65;;;25.60;99.90;;;;;;5067561;28;20229;-75
2022/05/23 13:16:39;;;;;;;4.97;1.55;;;25.40;99.90;;;;;;5067226;28;20186;-74
2022/05/23 13:22:05;;;;;;;3.50;1.73;;;24.80;99.90;;;;;;5034742;28;20252;-74
2022/05/23 13:24:54;;;;;;;3.90;1.90;;;24.50;99.90;;;;;;5067229;28;20189;-76
2022/05/23 13:27:20;;;;;;;3.83;2.15;;;24.20;99.90;;;;;;5066624;28;20255;-75
2022/05/23 13:30:11;;;;;;;2.13;1.70;;;24.00;99.90;;;;;;5018429;28;20175;-73
2022/05/23 13:32:36;;;;;;;2.72;1.70;;;23.80;99.90;;;;;;5022665;28;20189;-74
2022/05/23 13:35:19;;;;;;;3.08;2.20;;;23.70;99.90;;;;;;5058415;28;20465;-74
2022/05/23 13:37:44;;;;;;;4.72;2.05;;;23.60;99.90;;;;;;5062756;28;20190;-74
2022/05/23 13:40:19;;;;;;;3.47;1.98;;;23.50;99.90;;;;;;5051450;28;20193;-74
2022/05/23 13:42:45;;;;;;;3.10;2.05;;;23.40;99.90;;;;;;5057000;28;20174;-75
2022/05/23 13:45:15;;;;;;;3.50;2.25;;;23.30;99.90;;;;;;5067066;28;20181;-75
2022/05/23 13:47:59;;;;;;;3.72;2.10;;;23.30;99.90;;;;;;5066897;28;20424;-75
2022/05/23 13:50:33;;;;;;;5.22;2.33;;;23.30;99.90;;;;;;5022104;28;20185;-74
2022/05/23 13:53:08;;;;;;;4.07;2.35;;;23.20;99.90;;;;;;5046760;28;20198;-74
2022/05/23 13:55:42;;;;;;;3.22;2.22;;;23.30;99.90;;;;;;5048609;28;20231;-74
2022/05/23 13:58:13;;;;;;;3.72;2.17;;;23.30;99.90;;;;;;5067265;28;20161;-75
2022/05/23 14:00:43;;;;;;;4.32;2.42;;;23.30;99.90;;;;;;5048780;28;20202;-76
2022/05/23 14:03:20;;;;;;;3.63;2.20;;;23.40;99.90;;;;;;5057677;28;20195;-74
2022/05/23 14:05:50;;;;;;;4.55;2.50;;;23.50;99.90;;;;;;5065619;28;20188;-74
2022/05/23 14:08:33;;;;;;;4.50;2.60;;;23.60;99.90;;;;;;5046919;28;20225;-75
2022/05/23 14:11:03;;;;;;;3.90;2.90;;;23.80;99.90;;;;;;5018122;28;20269;-74
2022/05/23 14:13:31;;;;;;;6.32;2.97;;;23.90;99.90;;;;;;5062704;28;20194;-73
2022/05/23 14:15:57;;;;;;;5.07;2.53;;;24.20;99.90;;;;;;5064269;28;20177;-74
2022/05/23 14:18:33;;;;;;;4.50;2.20;;;24.40;99.90;;;;;;5046863;28;20285;-74